Helm, CA

8:27 AM PST on February 06, 2016 (GMT -0800)
GFWS112 | | Change Station
CLOSE
Current Station
Personal Weather Station
Location: Kerman, CA
Elevation: 197 ft
Nearby Weather Stations

Elev 197 ft 36.65 °N, 120.09 °W | Updated 2 minutes ago

Partly Cloudy
Partly Cloudy
35.7 °F
Feels Like 36 °F
N
0.0
Wind Variable Wind from SW
Gusts 0.0 mph

Today
High -- | Low -- °F
--% Chance of Precip.
Yesterday
High -- | Low -- °F
Precip. -- in
Pressure 30.42 in
Visibility 9.0 miles
Clouds Few 20000 ft
Windchill 36 °F
Dew Point 35 °F
Humidity 98%
Rainfall 0.00 in
Snow Depth Not available.
6:58 AM 5:31 PM
Waning Crescent, 5% visible
METAR KFAT 061453Z 00000KT 9SM FEW200 04/02 A3042 RMK AO2 SLP300 T00390022 50008
Pressure 30.42 in
Visibility 9.0 miles
Clouds Few 20000 ft
Windchill 36 °F
Dew Point 35 °F
Humidity 98%
Rainfall 0.00 in
Snow Depth Not available.
6:58 AM 5:31 PM
Waning Crescent, 5% visible
METAR KFAT 061453Z 00000KT 9SM FEW200 04/02 A3042 RMK AO2 SLP300 T00390022 50008

10-Day Weather Forecast

Almanac

Astronomy

Feb. 06, 2016 Rise Set
Actual Time
Civil Twilight
Nautical Twilight
Astronomical Twilight
Moon
Length of Visible Light
Length of Day
Tomorrow will be .
, % of the Moon is Illuminated

Today's Extremes

State Highs State Lows

Community

WunderPhotos

Upload Photos

1,891,013 photos uploaded!

WunderBlog® & News

Nearby

Air Quality

  Air Quality AQ Index Pollutant
Not available.

Snow Depth

Station Depth Elevation

Earthquake Activity

City Distance Mag. Time & Date
Minimum magnitude displayed is 2.5.

Coastal Water Temperatures

Place Temperature

Stations

Nearby Weather Stations

Station Location Temp. Windchill Dew Point Humidity Wind Precip. Elev Updated Type
                   

Watches & Warnings

There are currently no watches in effect.